createdAt,value
2019-05-21T00:00:34.474Z,4.70
2019-05-21T00:05:40.925Z,4.52
2019-05-21T00:10:47.052Z,4.96
2019-05-21T00:15:53.481Z,4.57
2019-05-21T00:20:59.615Z,4.46
2019-05-21T00:26:05.781Z,4.56
2019-05-21T00:31:12.079Z,4.62
2019-05-21T00:36:18.378Z,4.49
2019-05-21T00:41:24.549Z,4.41
2019-05-21T00:46:30.852Z,4.80
2019-05-21T00:51:37.183Z,4.39
2019-05-21T00:56:43.419Z,4.69
2019-05-21T01:01:50.029Z,4.60
2019-05-21T01:06:56.516Z,4.68
2019-05-21T01:12:03.051Z,5.00
2019-05-21T01:17:09.304Z,5.92
2019-05-21T01:22:15.601Z,5.67
2019-05-21T01:27:21.915Z,5.63
2019-05-21T01:32:28.064Z,5.38
2019-05-21T01:37:34.296Z,5.75
2019-05-21T01:42:40.477Z,6.49
2019-05-21T01:47:46.871Z,7.21
2019-05-21T01:52:53.078Z,7.72
2019-05-21T01:57:59.525Z,7.30
2019-05-21T02:03:05.686Z,7.52
2019-05-21T02:08:11.975Z,7.44
2019-05-21T02:13:18.162Z,7.47
2019-05-21T02:18:24.560Z,7.93
2019-05-21T02:23:30.727Z,7.84
2019-05-21T02:28:37.399Z,7.91
2019-05-21T02:33:43.682Z,8.14
2019-05-21T02:38:50.187Z,8.25
2019-05-21T02:43:56.361Z,8.80
2019-05-21T02:49:02.619Z,8.65
2019-05-21T02:54:08.813Z,8.97
2019-05-21T02:59:15.138Z,8.87
2019-05-21T03:04:21.401Z,8.89
2019-05-21T03:09:27.880Z,9.21
2019-05-21T03:14:34.126Z,9.25
2019-05-21T03:19:40.331Z,9.12
2019-05-21T03:24:46.434Z,9.52
2019-05-21T03:29:52.804Z,9.82
2019-05-21T03:34:58.982Z,10.01
2019-05-21T03:40:05.200Z,10.51
2019-05-21T03:45:11.622Z,10.65
2019-05-21T03:50:18.030Z,10.88
2019-05-21T03:55:26.245Z,10.92
2019-05-21T04:00:32.516Z,11.08
2019-05-21T04:05:38.951Z,11.32
2019-05-21T04:10:45.432Z,12.02
2019-05-21T04:15:51.739Z,12.18
2019-05-21T04:20:58.014Z,11.98
2019-05-21T04:26:04.282Z,12.61
2019-05-21T04:31:10.600Z,13.03
2019-05-21T04:36:16.859Z,13.32
2019-05-21T04:41:23.466Z,12.81
2019-05-21T04:46:29.932Z,13.20
2019-05-21T04:51:36.417Z,13.19
2019-05-21T04:56:42.713Z,13.32
2019-05-21T05:01:48.956Z,13.80
2019-05-21T05:06:55.220Z,13.91
2019-05-21T05:12:01.547Z,14.23
2019-05-21T05:17:08.007Z,13.94
2019-05-21T05:22:14.235Z,14.48
2019-05-21T05:27:20.482Z,14.79
2019-05-21T05:32:36.156Z,14.60
2019-05-21T05:37:43.182Z,15.42
2019-05-21T05:42:39.015Z,15.85
2019-05-21T05:47:45.168Z,15.40
2019-05-21T05:52:51.959Z,15.48
2019-05-21T05:57:58.727Z,15.80
2019-05-21T06:03:05.374Z,15.79
2019-05-21T06:08:11.761Z,15.56
2019-05-21T06:13:18.273Z,15.87
2019-05-21T06:18:24.681Z,16.23
2019-05-21T06:23:30.939Z,16.30
2019-05-21T06:28:37.389Z,16.74
2019-05-21T06:33:43.977Z,16.59
2019-05-21T06:38:51.845Z,17.22
2019-05-21T06:43:58.079Z,17.45
2019-05-21T06:49:04.634Z,18.13
2019-05-21T06:54:11.073Z,18.61
2019-05-21T06:59:17.427Z,19.74
2019-05-21T07:04:24.036Z,20.06
2019-05-21T07:09:30.555Z,20.73
2019-05-21T07:14:36.809Z,21.01
2019-05-21T07:19:43.012Z,21.93
2019-05-21T07:24:49.284Z,21.28
2019-05-21T07:29:55.761Z,21.62
2019-05-21T07:35:02.463Z,21.46
2019-05-21T07:40:08.873Z,20.11
2019-05-21T07:45:15.309Z,20.82
2019-05-21T07:50:21.714Z,19.07
2019-05-21T07:55:27.933Z,19.39
2019-05-21T08:00:34.301Z,19.81
2019-05-21T08:05:40.584Z,18.81
2019-05-21T08:10:47.041Z,18.73
2019-05-21T08:15:53.312Z,18.92
2019-05-21T08:20:59.600Z,18.91
2019-05-21T08:26:06.458Z,18.73
2019-05-21T08:31:12.665Z,19.30
2019-05-21T08:36:19.180Z,18.31
2019-05-21T08:41:25.863Z,17.46
2019-05-21T08:46:32.305Z,16.89
2019-05-21T08:51:38.584Z,17.19
2019-05-21T08:56:44.768Z,17.29
2019-05-21T09:01:51.177Z,18.28
2019-05-21T09:06:57.459Z,18.35
2019-05-21T09:12:03.930Z,18.50
2019-05-21T09:17:10.742Z,19.28
2019-05-21T09:22:17.553Z,19.46
2019-05-21T09:27:23.938Z,17.65
2019-05-21T09:32:30.147Z,17.82
2019-05-21T09:37:36.392Z,18.19
2019-05-21T09:42:45.238Z,17.24
2019-05-21T09:47:52.124Z,17.38
2019-05-21T09:52:58.682Z,17.34
2019-05-21T09:58:05.036Z,17.36
2019-05-21T10:03:11.401Z,16.00
2019-05-21T10:08:17.652Z,16.04
2019-05-21T10:13:24.069Z,15.78
2019-05-21T10:18:30.199Z,16.50
2019-05-21T10:23:37.031Z,17.47
2019-05-21T10:28:43.196Z,18.21
2019-05-21T10:33:49.561Z,18.37
2019-05-21T10:38:55.719Z,18.05
2019-05-21T10:44:02.080Z,17.19
2019-05-21T10:49:08.608Z,16.88
2019-05-21T10:54:14.908Z,16.69
2019-05-21T10:59:21.276Z,16.57
2019-05-21T11:04:27.890Z,16.93
2019-05-21T11:09:34.358Z,16.43
2019-05-21T11:14:41.080Z,16.62
2019-05-21T11:19:47.635Z,17.18
2019-05-21T11:24:54.187Z,17.97
2019-05-21T11:30:00.651Z,16.30
2019-05-21T11:35:10.549Z,16.56
2019-05-21T11:40:17.024Z,16.51
2019-05-21T11:45:32.393Z,16.36
2019-05-21T11:50:29.717Z,16.16
2019-05-21T11:55:36.144Z,16.95
2019-05-21T12:00:42.733Z,17.68
2019-05-21T12:05:49.469Z,16.55
2019-05-21T12:10:55.693Z,16.32
2019-05-21T12:16:02.018Z,17.14
2019-05-21T12:21:08.645Z,17.09
2019-05-21T12:26:15.129Z,17.61
2019-05-21T12:31:21.503Z,19.08
2019-05-21T12:36:27.835Z,19.63
2019-05-21T12:41:34.644Z,21.11
2019-05-21T12:46:41.259Z,20.98
2019-05-21T12:51:47.673Z,23.36
2019-05-21T12:56:54.232Z,23.39
2019-05-21T13:02:00.424Z,23.23
2019-05-21T13:07:06.797Z,22.79
2019-05-21T13:12:13.204Z,22.52
2019-05-21T13:17:19.965Z,23.56
2019-05-21T13:22:30.508Z,23.86
2019-05-21T13:27:26.967Z,20.65
2019-05-21T13:32:33.350Z,19.62
2019-05-21T13:37:39.552Z,18.29
2019-05-21T13:42:45.974Z,18.23
2019-05-21T13:47:52.789Z,19.12
2019-05-21T13:52:59.058Z,19.94
2019-05-21T13:58:05.413Z,21.37
2019-05-21T14:03:11.745Z,19.81
2019-05-21T14:08:18.452Z,19.09
2019-05-21T14:13:24.976Z,18.90
2019-05-21T14:18:31.319Z,22.92
2019-05-21T14:23:37.823Z,20.26
2019-05-21T14:28:44.273Z,20.75
2019-05-21T14:33:51.048Z,20.03
2019-05-21T14:38:57.599Z,20.51
2019-05-21T14:44:04.291Z,20.61
2019-05-21T14:49:10.751Z,20.16
2019-05-21T14:54:26.052Z,19.64
2019-05-21T14:59:22.781Z,20.63
2019-05-21T15:04:29.747Z,19.81
2019-05-21T15:09:36.594Z,19.85
2019-05-21T15:14:42.939Z,22.42
2019-05-21T15:19:49.623Z,22.48
2019-05-21T15:24:56.233Z,20.76
2019-05-21T15:30:02.944Z,21.62
2019-05-21T15:35:09.431Z,18.85
2019-05-21T15:40:16.000Z,17.62
2019-05-21T15:45:22.351Z,17.66
2019-05-21T15:50:28.796Z,15.56
2019-05-21T15:55:35.253Z,13.97
2019-05-21T16:00:41.451Z,12.81
2019-05-21T16:05:47.699Z,9.73
2019-05-21T16:10:53.887Z,10.12
2019-05-21T16:16:00.077Z,10.70
2019-05-21T16:21:06.518Z,10.99
2019-05-21T16:26:12.722Z,11.10
2019-05-21T16:31:20.354Z,11.14
2019-05-21T16:36:26.859Z,11.26
2019-05-21T16:41:44.259Z,11.83
2019-05-21T16:46:42.893Z,10.61
2019-05-21T16:51:49.192Z,10.19
2019-05-21T16:56:55.496Z,11.44
2019-05-21T17:02:02.204Z,12.43
2019-05-21T17:07:08.382Z,13.54
2019-05-21T17:12:14.557Z,12.86
2019-05-21T17:17:20.762Z,13.52
2019-05-21T17:22:26.972Z,14.58
2019-05-21T17:27:33.342Z,15.53
2019-05-21T17:32:39.568Z,14.24
2019-05-21T17:37:46.039Z,12.95
2019-05-21T17:42:52.427Z,13.08
2019-05-21T17:47:58.838Z,12.79
2019-05-21T17:53:06.103Z,14.58
2019-05-21T17:58:12.481Z,15.30
2019-05-21T18:03:20.015Z,15.75
2019-05-21T18:08:26.671Z,15.81
2019-05-21T18:13:33.149Z,15.99
2019-05-21T18:18:39.812Z,16.39
2019-05-21T18:23:46.290Z,16.62
2019-05-21T18:28:53.010Z,16.13
2019-05-21T18:34:01.257Z,15.74
2019-05-21T18:39:08.161Z,15.76
2019-05-21T18:44:14.932Z,15.67
2019-05-21T18:49:21.331Z,16.59
2019-05-21T18:54:27.764Z,16.40
2019-05-21T18:59:34.245Z,17.06
2019-05-21T19:04:40.619Z,16.40
2019-05-21T19:09:46.855Z,16.44
2019-05-21T19:14:53.144Z,16.68
2019-05-21T19:19:59.374Z,15.06
2019-05-21T19:25:05.620Z,14.96
2019-05-21T19:30:12.172Z,13.73
2019-05-21T19:35:18.743Z,13.86
2019-05-21T19:40:25.058Z,13.31
2019-05-21T19:45:31.585Z,13.76
2019-05-21T19:50:37.885Z,14.02
2019-05-21T19:55:44.365Z,14.34
2019-05-21T20:00:50.986Z,16.01
2019-05-21T20:05:57.879Z,14.27
2019-05-21T20:11:04.479Z,12.78
2019-05-21T20:16:11.018Z,12.57
2019-05-21T20:21:17.383Z,12.73
2019-05-21T20:26:23.799Z,13.98
2019-05-21T20:31:30.199Z,14.40
2019-05-21T20:36:36.517Z,15.52
2019-05-21T20:41:42.891Z,16.20
2019-05-21T20:46:49.270Z,16.43
2019-05-21T20:51:56.593Z,15.31
2019-05-21T20:57:02.859Z,14.69
2019-05-21T21:02:09.036Z,14.63
2019-05-21T21:07:15.597Z,13.98
2019-05-21T21:12:22.273Z,15.33
2019-05-21T21:17:28.636Z,14.01
2019-05-21T21:22:34.959Z,14.47
2019-05-21T21:27:42.150Z,13.81
2019-05-21T21:32:49.152Z,13.09
2019-05-21T21:37:55.471Z,12.94
2019-05-21T21:43:01.910Z,12.13
2019-05-21T21:48:08.332Z,12.46
2019-05-21T21:53:16.781Z,11.60
2019-05-21T21:58:23.293Z,11.50
2019-05-21T22:03:29.922Z,11.58
2019-05-21T22:08:37.199Z,11.72
2019-05-21T22:13:43.663Z,12.10
2019-05-21T22:18:49.885Z,12.66
2019-05-21T22:24:03.943Z,11.84
2019-05-21T22:29:00.432Z,12.27
2019-05-21T22:34:06.537Z,12.22
2019-05-21T22:39:12.710Z,12.65
2019-05-21T22:44:18.840Z,12.71
2019-05-21T22:49:25.171Z,12.49
2019-05-21T22:54:31.338Z,12.65
2019-05-21T22:59:37.940Z,13.70
2019-05-21T23:04:44.327Z,15.30
2019-05-21T23:09:50.686Z,15.05
2019-05-21T23:14:56.903Z,16.00
2019-05-21T23:20:03.204Z,15.32
2019-05-21T23:25:09.431Z,15.30
2019-05-21T23:30:16.007Z,15.19
2019-05-21T23:35:22.442Z,14.99
2019-05-21T23:40:28.792Z,14.50
2019-05-21T23:45:35.168Z,14.13
2019-05-21T23:50:42.363Z,15.79
2019-05-21T23:55:48.770Z,13.61
